Terminal Aerodrome Forecast
Issued by NWS

Home | Current Version | Previous Version | Text Only | Print | Product List | Glossary On
Versions: 1 2 3 4 5 6 7 8 9 10 11 12 13 14 15 16 17 18 19 20 21 22 23 24 25 26 27 28
000
FTUS44 KOHX 031700
TAFCKV
TAF
KCKV 031740Z 0318/0418 19007KT P6SM SCT070 SCT250
     FM040000 19003KT P6SM SCT250
      TEMPO 0410/0412 4SM BR HZ
     FM041600 20008G15KT P6SM SCT060 SCT250=

USA.gov is the U.S. government's official web portal to all federal, state and local government web resources and services.